sensor_id;sensor_type;location;lat;lon;timestamp;pressure;altitude;pressure_sealevel;temperature;humidity
77793;BME280;66983;51.438;5.438;2023-04-03T00:00:10;102884.03;;;3.61;76.19
77793;BME280;66983;51.438;5.438;2023-04-03T00:02:36;102883.22;;;3.65;75.15
77793;BME280;66983;51.438;5.438;2023-04-03T00:05:01;102887.44;;;3.57;76.84
77793;BME280;66983;51.438;5.438;2023-04-03T00:07:27;102885.66;;;3.56;75.71
77793;BME280;66983;51.438;5.438;2023-04-03T00:09:52;102885.56;;;3.52;77.25
77793;BME280;66983;51.438;5.438;2023-04-03T00:12:18;102883.88;;;3.55;75.10
77793;BME280;66983;51.438;5.438;2023-04-03T00:14:43;102885.81;;;3.62;75.57
77793;BME280;66983;51.438;5.438;2023-04-03T00:17:09;102885.59;;;3.53;77.08
77793;BME280;66983;51.438;5.438;2023-04-03T00:19:34;102887.22;;;3.48;76.41
77793;BME280;66983;51.438;5.438;2023-04-03T00:22:00;102886.25;;;3.45;75.99
77793;BME280;66983;51.438;5.438;2023-04-03T00:24:26;102894.91;;;3.39;76.58
77793;BME280;66983;51.438;5.438;2023-04-03T00:26:51;102896.63;;;3.35;76.41
77793;BME280;66983;51.438;5.438;2023-04-03T00:29:17;102890.41;;;3.33;77.73
77793;BME280;66983;51.438;5.438;2023-04-03T00:31:42;102900.75;;;3.26;77.66
77793;BME280;66983;51.438;5.438;2023-04-03T00:34:08;102891.03;;;3.23;77.49
77793;BME280;66983;51.438;5.438;2023-04-03T00:36:33;102892.75;;;3.21;77.84
77793;BME280;66983;51.438;5.438;2023-04-03T00:38:59;102895.38;;;3.21;77.06
77793;BME280;66983;51.438;5.438;2023-04-03T00:41:24;102890.41;;;3.33;76.88
77793;BME280;66983;51.438;5.438;2023-04-03T00:43:50;102894.91;;;3.37;76.91
77793;BME280;66983;51.438;5.438;2023-04-03T00:46:16;102896.56;;;3.34;76.35
77793;BME280;66983;51.438;5.438;2023-04-03T00:48:47;102907.16;;;3.35;76.67
77793;BME280;66983;51.438;5.438;2023-04-03T00:51:24;102899.84;;;3.24;77.35
77793;BME280;66983;51.438;5.438;2023-04-03T00:53:59;102894.47;;;3.21;76.64
77793;BME280;66983;51.438;5.438;2023-04-03T00:56:28;102897.28;;;3.27;75.94
77793;BME280;66983;51.438;5.438;2023-04-03T00:59:13;102907.00;;;3.29;76.61
77793;BME280;66983;51.438;5.438;2023-04-03T01:01:41;102902.63;;;3.30;76.30
77793;BME280;66983;51.438;5.438;2023-04-03T01:04:27;102908.91;;;3.35;75.76
77793;BME280;66983;51.438;5.438;2023-04-03T01:06:56;102900.13;;;3.36;75.43
77793;BME280;66983;51.438;5.438;2023-04-03T01:09:23;102907.16;;;3.35;75.01
77793;BME280;66983;51.438;5.438;2023-04-03T01:11:49;102909.75;;;3.34;75.54
77793;BME280;66983;51.438;5.438;2023-04-03T01:14:14;102900.06;;;3.33;75.06
77793;BME280;66983;51.438;5.438;2023-04-03T01:16:40;102909.59;;;3.28;76.10
77793;BME280;66983;51.438;5.438;2023-04-03T01:19:15;102904.09;;;3.19;75.54
77793;BME280;66983;51.438;5.438;2023-04-03T01:21:56;102913.63;;;3.14;76.16
77793;BME280;66983;51.438;5.438;2023-04-03T01:24:36;102908.91;;;3.00;77.22
77793;BME280;66983;51.438;5.438;2023-04-03T01:27:08;102914.09;;;2.97;77.66
77793;BME280;66983;51.438;5.438;2023-04-03T01:29:35;102919.19;;;2.91;77.70
77793;BME280;66983;51.438;5.438;2023-04-03T01:32:02;102907.59;;;2.83;78.02
77793;BME280;66983;51.438;5.438;2023-04-03T01:34:30;102913.09;;;2.92;77.60
77793;BME280;66983;51.438;5.438;2023-04-03T01:36:56;102913.34;;;3.01;76.71
77793;BME280;66983;51.438;5.438;2023-04-03T01:39:22;102910.84;;;3.08;77.53
77793;BME280;66983;51.438;5.438;2023-04-03T01:41:49;102915.38;;;3.13;77.25
77793;BME280;66983;51.438;5.438;2023-04-03T01:44:24;102915.41;;;3.15;77.85
77793;BME280;66983;51.438;5.438;2023-04-03T01:46:50;102907.41;;;3.10;77.82
77793;BME280;66983;51.438;5.438;2023-04-03T01:49:15;102911.97;;;3.17;77.59
77793;BME280;66983;51.438;5.438;2023-04-03T01:51:41;102912.19;;;3.26;77.13
77793;BME280;66983;51.438;5.438;2023-04-03T01:54:07;102914.75;;;3.23;76.90
77793;BME280;66983;51.438;5.438;2023-04-03T01:56:33;102906.03;;;3.26;76.31
77793;BME280;66983;51.438;5.438;2023-04-03T01:58:58;102910.53;;;3.30;76.61
77793;BME280;66983;51.438;5.438;2023-04-03T02:01:24;102907.81;;;3.27;77.28
77793;BME280;66983;51.438;5.438;2023-04-03T02:03:51;102911.38;;;3.29;76.84
77793;BME280;66983;51.438;5.438;2023-04-03T02:06:16;102918.28;;;3.24;76.86
77793;BME280;66983;51.438;5.438;2023-04-03T02:08:42;102912.34;;;3.32;76.19
77793;BME280;66983;51.438;5.438;2023-04-03T02:11:07;102915.09;;;3.37;76.90
77793;BME280;66983;51.438;5.438;2023-04-03T02:13:33;102915.91;;;3.34;76.35
77793;BME280;66983;51.438;5.438;2023-04-03T02:15:59;102920.38;;;3.38;76.56
77793;BME280;66983;51.438;5.438;2023-04-03T02:18:24;102917.69;;;3.35;76.26
77793;BME280;66983;51.438;5.438;2023-04-03T02:20:50;102916.88;;;3.39;76.33
77793;BME280;66983;51.438;5.438;2023-04-03T02:23:16;102915.84;;;3.31;75.40
77793;BME280;66983;51.438;5.438;2023-04-03T02:25:41;102919.47;;;3.36;76.66
77793;BME280;66983;51.438;5.438;2023-04-03T02:28:07;102929.19;;;3.39;76.12
77793;BME280;66983;51.438;5.438;2023-04-03T02:30:32;102923.00;;;3.37;75.75
77793;BME280;66983;51.438;5.438;2023-04-03T02:32:58;102923.06;;;3.40;76.05
77793;BME280;66983;51.438;5.438;2023-04-03T02:35:24;102924.78;;;3.39;75.88
77793;BME280;66983;51.438;5.438;2023-04-03T02:37:51;102919.47;;;3.38;75.54
77793;BME280;66983;51.438;5.438;2023-04-03T02:40:16;102929.19;;;3.39;75.43
77793;BME280;66983;51.438;5.438;2023-04-03T02:42:42;102923.00;;;3.38;75.41
77793;BME280;66983;51.438;5.438;2023-04-03T02:45:08;102926.53;;;3.39;75.14
77793;BME280;66983;51.438;5.438;2023-04-03T02:47:34;102934.41;;;3.36;75.61
77793;BME280;66983;51.438;5.438;2023-04-03T02:49:59;102926.47;;;3.34;75.37
77793;BME280;66983;51.438;5.438;2023-04-03T02:52:25;102935.22;;;3.33;75.58
77793;BME280;66983;51.438;5.438;2023-04-03T02:54:53;102937.00;;;3.34;75.63
77793;BME280;66983;51.438;5.438;2023-04-03T02:57:18;102939.59;;;3.33;75.62
77793;BME280;66983;51.438;5.438;2023-04-03T02:59:45;102939.44;;;3.27;76.32
77793;BME280;66983;51.438;5.438;2023-04-03T03:02:11;102935.09;;;3.29;75.26
77793;BME280;66983;51.438;5.438;2023-04-03T03:04:37;102935.00;;;3.26;75.17
77793;BME280;66983;51.438;5.438;2023-04-03T03:07:02;102935.91;;;3.26;75.54
77793;BME280;66983;51.438;5.438;2023-04-03T03:09:28;102936.75;;;3.25;75.43
77793;BME280;66983;51.438;5.438;2023-04-03T03:11:55;102936.72;;;3.24;75.64
77793;BME280;66983;51.438;5.438;2023-04-03T03:14:21;102941.06;;;3.22;75.63
77793;BME280;66983;51.438;5.438;2023-04-03T03:16:47;102933.16;;;3.22;75.71
77793;BME280;66983;51.438;5.438;2023-04-03T03:19:12;102932.22;;;3.20;75.18
77793;BME280;66983;51.438;5.438;2023-04-03T03:21:38;102933.06;;;3.19;75.53
77793;BME280;66983;51.438;5.438;2023-04-03T03:24:04;102933.00;;;3.16;75.48
77793;BME280;66983;51.438;5.438;2023-04-03T03:26:29;102926.84;;;3.15;75.61
77793;BME280;66983;51.438;5.438;2023-04-03T03:28:55;102931.25;;;3.16;75.48
77793;BME280;66983;51.438;5.438;2023-04-03T03:31:21;102930.28;;;3.13;75.96
77793;BME280;66983;51.438;5.438;2023-04-03T03:33:47;102927.56;;;3.08;75.28
77793;BME280;66983;51.438;5.438;2023-04-03T03:36:12;102935.41;;;3.06;75.35
77793;BME280;66983;51.438;5.438;2023-04-03T03:38:38;102937.13;;;3.04;75.44
77793;BME280;66983;51.438;5.438;2023-04-03T03:41:04;102951.94;;;3.01;75.49
77793;BME280;66983;51.438;5.438;2023-04-03T03:43:32;102950.06;;;2.97;75.82
77793;BME280;66983;51.438;5.438;2023-04-03T03:45:57;102954.47;;;2.96;76.06
77793;BME280;66983;51.438;5.438;2023-04-03T03:48:24;102950.97;;;2.97;75.26
77793;BME280;66983;51.438;5.438;2023-04-03T03:50:50;102949.09;;;2.93;75.72
77793;BME280;66983;51.438;5.438;2023-04-03T03:53:17;102956.13;;;2.93;75.86
77793;BME280;66983;51.438;5.438;2023-04-03T03:55:43;102962.31;;;2.95;75.87
77793;BME280;66983;51.438;5.438;2023-04-03T03:58:09;102964.09;;;2.96;75.18
77793;BME280;66983;51.438;5.438;2023-04-03T04:00:35;102967.53;;;2.93;75.61
77793;BME280;66983;51.438;5.438;2023-04-03T04:03:01;102966.56;;;2.90;74.77
77793;BME280;66983;51.438;5.438;2023-04-03T04:05:28;102972.69;;;2.89;75.31
77793;BME280;66983;51.438;5.438;2023-04-03T04:07:54;102970.75;;;2.82;75.56
77793;BME280;66983;51.438;5.438;2023-04-03T04:10:21;102958.41;;;2.79;75.60
77793;BME280;66983;51.438;5.438;2023-04-03T04:12:46;102959.31;;;2.81;75.64
77793;BME280;66983;51.438;5.438;2023-04-03T04:15:14;102956.66;;;2.80;75.67
77793;BME280;66983;51.438;5.438;2023-04-03T04:17:40;102963.66;;;2.79;75.86
77793;BME280;66983;51.438;5.438;2023-04-03T04:20:10;102962.81;;;2.80;75.42
77793;BME280;66983;51.438;5.438;2023-04-03T04:22:36;102973.34;;;2.80;75.43
77793;BME280;66983;51.438;5.438;2023-04-03T04:25:03;102962.84;;;2.82;74.87
77793;BME280;66983;51.438;5.438;2023-04-03T04:27:29;102963.66;;;2.79;75.00
77793;BME280;66983;51.438;5.438;2023-04-03T04:29:55;102961.91;;;2.80;74.39
77793;BME280;66983;51.438;5.438;2023-04-03T04:32:21;102962.00;;;2.83;74.67
77793;BME280;66983;51.438;5.438;2023-04-03T04:34:47;102964.50;;;2.78;74.96
77793;BME280;66983;51.438;5.438;2023-04-03T04:37:13;102959.19;;;2.77;74.77
77793;BME280;66983;51.438;5.438;2023-04-03T04:39:38;102968.00;;;2.77;74.83
77793;BME280;66983;51.438;5.438;2023-04-03T04:42:05;102962.72;;;2.77;74.85
77793;BME280;66983;51.438;5.438;2023-04-03T04:44:32;102964.41;;;2.75;74.67
77793;BME280;66983;51.438;5.438;2023-04-03T04:46:58;102966.16;;;2.75;74.63
77793;BME280;66983;51.438;5.438;2023-04-03T04:49:23;102975.75;;;2.72;74.75
77793;BME280;66983;51.438;5.438;2023-04-03T04:51:49;102978.16;;;2.65;75.16
77793;BME280;66983;51.438;5.438;2023-04-03T04:54:17;102980.84;;;2.66;75.21
77793;BME280;66983;51.438;5.438;2023-04-03T04:56:45;102984.28;;;2.64;74.92
77793;BME280;66983;51.438;5.438;2023-04-03T04:59:11;102985.94;;;2.60;75.10
77793;BME280;66983;51.438;5.438;2023-04-03T05:01:36;102983.25;;;2.57;75.12
77793;BME280;66983;51.438;5.438;2023-04-03T05:04:08;102980.44;;;2.51;75.16
77793;BME280;66983;51.438;5.438;2023-04-03T05:06:34;102992.81;;;2.55;75.08
77793;BME280;66983;51.438;5.438;2023-04-03T05:09:02;102990.06;;;2.51;75.21
77793;BME280;66983;51.438;5.438;2023-04-03T05:11:29;102987.44;;;2.51;74.98
77793;BME280;66983;51.438;5.438;2023-04-03T05:13:55;102983.91;;;2.50;75.38
77793;BME280;66983;51.438;5.438;2023-04-03T05:16:23;102981.19;;;2.47;75.66
77793;BME280;66983;51.438;5.438;2023-04-03T05:18:49;102990.06;;;2.51;75.04
77793;BME280;66983;51.438;5.438;2023-04-03T05:21:18;102993.53;;;2.50;75.21
77793;BME280;66983;51.438;5.438;2023-04-03T05:23:45;102994.38;;;2.49;75.25
77793;BME280;66983;51.438;5.438;2023-04-03T05:26:11;102999.59;;;2.47;75.44
77793;BME280;66983;51.438;5.438;2023-04-03T05:28:37;103001.38;;;2.48;75.49
77793;BME280;66983;51.438;5.438;2023-04-03T05:31:04;102999.66;;;2.49;74.87
77793;BME280;66983;51.438;5.438;2023-04-03T05:33:34;103006.59;;;2.47;74.99
77793;BME280;66983;51.438;5.438;2023-04-03T05:36:04;103008.25;;;2.43;75.26
77793;BME280;66983;51.438;5.438;2023-04-03T05:38:33;103010.03;;;2.44;75.42
77793;BME280;66983;51.438;5.438;2023-04-03T05:40:59;103007.44;;;2.46;75.38
77793;BME280;66983;51.438;5.438;2023-04-03T05:43:25;103007.44;;;2.46;75.91
77793;BME280;66983;51.438;5.438;2023-04-03T05:45:52;103017.03;;;2.44;75.85
77793;BME280;66983;51.438;5.438;2023-04-03T05:48:19;103018.81;;;2.45;75.50
77793;BME280;66983;51.438;5.438;2023-04-03T05:50:45;103023.19;;;2.44;75.02
77793;BME280;66983;51.438;5.438;2023-04-03T05:53:27;103016.19;;;2.45;75.39
77793;BME280;66983;51.438;5.438;2023-04-03T05:55:55;103017.97;;;2.46;75.48
77793;BME280;66983;51.438;5.438;2023-04-03T05:58:21;103018.97;;;2.49;75.57
77793;BME280;66983;51.438;5.438;2023-04-03T06:00:48;103019.94;;;2.53;75.12
77793;BME280;66983;51.438;5.438;2023-04-03T06:03:14;103013.13;;;2.61;75.22
77793;BME280;66983;51.438;5.438;2023-04-03T06:05:39;103019.38;;;2.64;74.23
77793;BME280;66983;51.438;5.438;2023-04-03T06:08:05;103017.84;;;2.71;73.67
77793;BME280;66983;51.438;5.438;2023-04-03T06:10:31;103021.34;;;2.71;74.19
77793;BME280;66983;51.438;5.438;2023-04-03T06:12:57;103020.75;;;2.80;73.96
77793;BME280;66983;51.438;5.438;2023-04-03T06:15:23;103026.94;;;2.82;73.80
77793;BME280;66983;51.438;5.438;2023-04-03T06:17:49;103026.03;;;2.82;73.08
77793;BME280;66983;51.438;5.438;2023-04-03T06:20:14;103027.13;;;2.90;73.65
77793;BME280;66983;51.438;5.438;2023-04-03T06:22:40;103023.56;;;2.88;73.17
77793;BME280;66983;51.438;5.438;2023-04-03T06:25:07;103026.41;;;2.95;72.99
77793;BME280;66983;51.438;5.438;2023-04-03T06:27:34;103034.28;;;2.94;72.59
77793;BME280;66983;51.438;5.438;2023-04-03T06:30:00;103028.19;;;2.96;72.78
77793;BME280;66983;51.438;5.438;2023-04-03T06:32:25;103036.19;;;2.99;72.45
77793;BME280;66983;51.438;5.438;2023-04-03T06:34:51;103027.47;;;3.02;72.60
77793;BME280;66983;51.438;5.438;2023-04-03T06:37:21;103040.88;;;3.10;72.17
77793;BME280;66983;51.438;5.438;2023-04-03T06:39:47;103048.03;;;3.15;71.89
77793;BME280;66983;51.438;5.438;2023-04-03T06:42:13;103042.03;;;3.21;71.70
77793;BME280;66983;51.438;5.438;2023-04-03T06:44:47;103050.09;;;3.27;71.10
77793;BME280;66983;51.438;5.438;2023-04-03T06:47:15;103045.94;;;3.35;70.79
77793;BME280;66983;51.438;5.438;2023-04-03T06:49:40;103041.81;;;3.46;71.31
77793;BME280;66983;51.438;5.438;2023-04-03T06:52:07;103049.84;;;3.51;70.25
77793;BME280;66983;51.438;5.438;2023-04-03T06:54:33;103053.72;;;3.63;69.78
77793;BME280;66983;51.438;5.438;2023-04-03T06:56:59;103041.47;;;3.67;70.18
77793;BME280;66983;51.438;5.438;2023-04-03T06:59:25;103046.00;;;3.72;70.29
77793;BME280;66983;51.438;5.438;2023-04-03T07:01:51;103049.66;;;3.78;69.06
77793;BME280;66983;51.438;5.438;2023-04-03T07:04:17;103048.75;;;3.77;69.20
77793;BME280;66983;51.438;5.438;2023-04-03T07:06:43;103048.75;;;3.77;68.43
77793;BME280;66983;51.438;5.438;2023-04-03T07:09:10;103059.59;;;3.88;68.92
77793;BME280;66983;51.438;5.438;2023-04-03T07:11:36;103059.13;;;4.05;68.44
77793;BME280;66983;51.438;5.438;2023-04-03T07:14:02;103055.81;;;4.14;67.82
77793;BME280;66983;51.438;5.438;2023-04-03T07:16:28;103060.66;;;4.33;67.18
77793;BME280;66983;51.438;5.438;2023-04-03T07:18:56;103053.28;;;4.59;66.54
77793;BME280;66983;51.438;5.438;2023-04-03T07:21:23;103049.28;;;4.78;65.51
77793;BME280;66983;51.438;5.438;2023-04-03T07:23:48;103054.72;;;4.86;64.79
77793;BME280;66983;51.438;5.438;2023-04-03T07:26:14;103065.44;;;4.95;64.52
77793;BME280;66983;51.438;5.438;2023-04-03T07:28:39;103066.34;;;4.95;64.93
77793;BME280;66983;51.438;5.438;2023-04-03T07:31:10;103064.53;;;4.91;64.82
77793;BME280;66983;51.438;5.438;2023-04-03T07:33:39;103072.38;;;4.88;65.38
77793;BME280;66983;51.438;5.438;2023-04-03T07:36:06;103064.22;;;4.77;65.48
77793;BME280;66983;51.438;5.438;2023-04-03T07:38:33;103064.09;;;4.71;64.97
77793;BME280;66983;51.438;5.438;2023-04-03T07:40:59;103071.06;;;4.68;65.86
77793;BME280;66983;51.438;5.438;2023-04-03T07:43:25;103070.31;;;4.73;66.56
77793;BME280;66983;51.438;5.438;2023-04-03T07:45:51;103072.97;;;4.75;64.93
77793;BME280;66983;51.438;5.438;2023-04-03T07:48:22;103071.25;;;4.77;65.98
77793;BME280;66983;51.438;5.438;2023-04-03T07:50:48;103072.22;;;4.81;64.79
77793;BME280;66983;51.438;5.438;2023-04-03T07:53:14;103077.56;;;4.84;64.93
77793;BME280;66983;51.438;5.438;2023-04-03T07:55:40;103073.25;;;4.87;63.72
77793;BME280;66983;51.438;5.438;2023-04-03T07:58:11;103071.59;;;4.92;63.90
77793;BME280;66983;51.438;5.438;2023-04-03T08:00:37;103069.91;;;4.97;64.34
77793;BME280;66983;51.438;5.438;2023-04-03T08:03:04;103080.66;;;5.06;64.64
77793;BME280;66983;51.438;5.438;2023-04-03T08:05:30;103073.84;;;5.18;63.95
77793;BME280;66983;51.438;5.438;2023-04-03T08:07:55;103082.84;;;5.27;63.32
77793;BME280;66983;51.438;5.438;2023-04-03T08:10:21;103071.56;;;5.36;64.31
77793;BME280;66983;51.438;5.438;2023-04-03T08:12:47;103076.84;;;5.36;61.09
77793;BME280;66983;51.438;5.438;2023-04-03T08:15:13;103078.63;;;5.37;60.78
77793;BME280;66983;51.438;5.438;2023-04-03T08:17:38;103073.41;;;5.41;60.14
77793;BME280;66983;51.438;5.438;2023-04-03T08:20:05;103074.38;;;5.46;61.15
77793;BME280;66983;51.438;5.438;2023-04-03T08:22:32;103079.81;;;5.54;60.38
77793;BME280;66983;51.438;5.438;2023-04-03T08:24:58;103071.94;;;5.57;58.01
77793;BME280;66983;51.438;5.438;2023-04-03T08:27:24;103070.19;;;5.59;59.61
77793;BME280;66983;51.438;5.438;2023-04-03T08:29:50;103078.25;;;5.65;58.36
77793;BME280;66983;51.438;5.438;2023-04-03T08:32:16;103074.72;;;5.65;60.04
77793;BME280;66983;51.438;5.438;2023-04-03T08:34:42;103077.47;;;5.71;60.55
77793;BME280;66983;51.438;5.438;2023-04-03T08:37:07;103077.59;;;5.78;60.40
77793;BME280;66983;51.438;5.438;2023-04-03T08:39:33;103075.03;;;5.85;58.48
77793;BME280;66983;51.438;5.438;2023-04-03T08:42:02;103081.41;;;5.93;59.00
77793;BME280;66983;51.438;5.438;2023-04-03T08:44:47;103086.75;;;5.99;57.89
77793;BME280;66983;51.438;5.438;2023-04-03T08:47:26;103084.91;;;5.92;55.87
77793;BME280;66983;51.438;5.438;2023-04-03T08:50:01;103088.53;;;5.98;56.92
77793;BME280;66983;51.438;5.438;2023-04-03T08:52:39;103087.63;;;5.98;55.08
77793;BME280;66983;51.438;5.438;2023-04-03T08:55:23;103088.66;;;6.06;56.89
77793;BME280;66983;51.438;5.438;2023-04-03T08:58:02;103086.06;;;6.09;55.88
77793;BME280;66983;51.438;5.438;2023-04-03T09:00:53;103091.41;;;6.12;56.45
77793;BME280;66983;51.438;5.438;2023-04-03T09:03:21;103085.34;;;6.19;55.50
77793;BME280;66983;51.438;5.438;2023-04-03T09:06:03;103081.91;;;6.26;53.89
77793;BME280;66983;51.438;5.438;2023-04-03T09:08:35;103082.00;;;6.32;50.23
77793;BME280;66983;51.438;5.438;2023-04-03T09:11:27;103085.56;;;6.34;51.00
77793;BME280;66983;51.438;5.438;2023-04-03T09:14:16;103083.97;;;6.45;49.95
77793;BME280;66983;51.438;5.438;2023-04-03T09:17:00;103089.38;;;6.55;47.92
77793;BME280;66983;51.438;5.438;2023-04-03T09:22:00;103082.56;;;6.72;48.63
77793;BME280;66983;51.438;5.438;2023-04-03T09:24:28;103088.91;;;6.86;47.77
77793;BME280;66983;51.438;5.438;2023-04-03T09:27:03;103088.88;;;6.83;46.55
77793;BME280;66983;51.438;5.438;2023-04-03T09:29:30;103088.09;;;6.90;46.07
77793;BME280;66983;51.438;5.438;2023-04-03T09:32:01;103089.00;;;6.92;46.13
77793;BME280;66983;51.438;5.438;2023-04-03T09:34:32;103088.19;;;6.98;44.70
77793;BME280;66983;51.438;5.438;2023-04-03T09:37:03;103083.72;;;6.95;39.80
77793;BME280;66983;51.438;5.438;2023-04-03T09:39:33;103088.16;;;6.96;41.67
77793;BME280;66983;51.438;5.438;2023-04-03T09:42:21;103088.28;;;7.07;41.19
77793;BME280;66983;51.438;5.438;2023-04-03T09:45:04;103091.06;;;7.18;41.47
77793;BME280;66983;51.438;5.438;2023-04-03T09:47:35;103079.69;;;7.26;42.56
77793;BME280;66983;51.438;5.438;2023-04-03T09:52:44;103068.03;;;7.13;37.79
77793;BME280;66983;51.438;5.438;2023-04-03T09:55:16;103068.16;;;7.24;40.46
77793;BME280;66983;51.438;5.438;2023-04-03T09:57:43;103070.00;;;7.33;40.73
77793;BME280;66983;51.438;5.438;2023-04-03T10:00:33;103065.63;;;7.36;39.50
77793;BME280;66983;51.438;5.438;2023-04-03T10:03:00;103063.00;;;7.41;40.21
77793;BME280;66983;51.438;5.438;2023-04-03T10:07:51;103041.16;;;7.68;38.44
77793;BME280;66983;51.438;5.438;2023-04-03T10:10:20;103042.06;;;7.71;39.05
77793;BME280;66983;51.438;5.438;2023-04-03T10:12:48;103045.69;;;7.79;39.32
77793;BME280;66983;51.438;5.438;2023-04-03T10:15:16;103049.25;;;7.88;39.34
77793;BME280;66983;51.438;5.438;2023-04-03T10:18:00;103051.88;;;7.83;39.82
77793;BME280;66983;51.438;5.438;2023-04-03T10:20:41;103048.28;;;7.75;37.85
77793;BME280;66983;51.438;5.438;2023-04-03T10:23:24;103048.31;;;7.81;38.71
77793;BME280;66983;51.438;5.438;2023-04-03T10:31:16;103040.41;;;7.86;36.83
77793;BME280;66983;51.438;5.438;2023-04-03T10:34:23;103038.56;;;7.75;35.83
77793;BME280;66983;51.438;5.438;2023-04-03T10:37:23;103037.72;;;7.78;35.38
77793;BME280;66983;51.438;5.438;2023-04-03T10:40:40;103030.72;;;7.92;35.84
77793;BME280;66983;51.438;5.438;2023-04-03T10:43:06;103026.28;;;7.93;36.75
77793;BME280;66983;51.438;5.438;2023-04-03T10:48:28;103008.69;;;8.07;36.98
77793;BME280;66983;51.438;5.438;2023-04-03T10:57:05;103013.16;;;8.14;34.98
77793;BME280;66983;51.438;5.438;2023-04-03T10:59:48;103009.63;;;8.16;35.43
77793;BME280;66983;51.438;5.438;2023-04-03T11:05:04;102989.34;;;8.28;34.24
77793;BME280;66983;51.438;5.438;2023-04-03T11:07:39;102993.78;;;8.29;35.21
77793;BME280;66983;51.438;5.438;2023-04-03T11:10:17;102994.72;;;8.38;34.96
77793;BME280;66983;51.438;5.438;2023-04-03T11:13:06;102987.59;;;8.31;35.23
77793;BME280;66983;51.438;5.438;2023-04-03T11:15:36;102993.84;;;8.41;33.78
77793;BME280;66983;51.438;5.438;2023-04-03T11:18:09;102999.16;;;8.42;33.58
77793;BME280;66983;51.438;5.438;2023-04-03T11:20:37;102992.91;;;8.31;32.39
77793;BME280;66983;51.438;5.438;2023-04-03T11:23:26;102994.69;;;8.34;32.88
77793;BME280;66983;51.438;5.438;2023-04-03T11:25:59;102986.81;;;8.47;33.57
77793;BME280;66983;51.438;5.438;2023-04-03T11:28:27;102982.38;;;8.46;35.65
77793;BME280;66983;51.438;5.438;2023-04-03T11:33:43;102980.66;;;8.65;33.98
77793;BME280;66983;51.438;5.438;2023-04-03T11:36:25;102981.59;;;8.75;34.26
77793;BME280;66983;51.438;5.438;2023-04-03T11:38:57;102971.81;;;8.72;34.70
77793;BME280;66983;51.438;5.438;2023-04-03T11:41:29;102972.69;;;8.70;34.02
77793;BME280;66983;51.438;5.438;2023-04-03T11:44:05;102952.28;;;8.63;33.81
77793;BME280;66983;51.438;5.438;2023-04-03T11:46:55;102957.66;;;8.78;34.92
77793;BME280;66983;51.438;5.438;2023-04-03T11:50:00;102959.47;;;8.82;33.64
77793;BME280;66983;51.438;5.438;2023-04-03T12:16:21;102938.16;;;8.87;32.92
77793;BME280;66983;51.438;5.438;2023-04-03T12:24:44;102939.09;;;9.04;31.52
77793;BME280;66983;51.438;5.438;2023-04-03T12:40:34;102924.94;;;9.32;32.20
77793;BME280;66983;51.438;5.438;2023-04-03T12:48:27;102916.91;;;9.57;32.43
77793;BME280;66983;51.438;5.438;2023-04-03T12:50:55;102908.94;;;9.55;32.29
77793;BME280;66983;51.438;5.438;2023-04-03T12:53:25;102900.06;;;9.50;31.95
77793;BME280;66983;51.438;5.438;2023-04-03T12:55:54;102900.94;;;9.52;33.83
77793;BME280;66983;51.438;5.438;2023-04-03T12:58:26;102894.75;;;9.51;34.13
77793;BME280;66983;51.438;5.438;2023-04-03T13:01:14;102900.94;;;9.55;33.67
77793;BME280;66983;51.438;5.438;2023-04-03T13:03:44;102887.66;;;9.47;33.15
77793;BME280;66983;51.438;5.438;2023-04-03T13:06:18;102889.41;;;9.48;33.15
77793;BME280;66983;51.438;5.438;2023-04-03T13:08:59;102881.44;;;9.47;32.80
77793;BME280;66983;51.438;5.438;2023-04-03T13:11:35;102885.88;;;9.49;34.76
77793;BME280;66983;51.438;5.438;2023-04-03T13:14:05;102898.28;;;9.53;34.23
77793;BME280;66983;51.438;5.438;2023-04-03T13:16:32;102892.06;;;9.41;35.98
77793;BME280;66983;51.438;5.438;2023-04-03T13:18:59;102878.81;;;9.35;34.88
77793;BME280;66983;51.438;5.438;2023-04-03T13:21:28;102877.88;;;9.42;35.92
77793;BME280;66983;51.438;5.438;2023-04-03T13:23:59;102877.00;;;9.44;34.71
77793;BME280;66983;51.438;5.438;2023-04-03T13:26:29;102888.53;;;9.51;35.24
77793;BME280;66983;51.438;5.438;2023-04-03T13:29:02;102880.53;;;9.52;36.08
77793;BME280;66983;51.438;5.438;2023-04-03T13:31:35;102892.97;;;9.61;34.32
77793;BME280;66983;51.438;5.438;2023-04-03T13:34:12;102878.75;;;9.56;35.43
77793;BME280;66983;51.438;5.438;2023-04-03T13:41:45;102869.00;;;9.55;35.76
77793;BME280;66983;51.438;5.438;2023-04-03T13:46:41;102863.69;;;9.60;34.13
77793;BME280;66983;51.438;5.438;2023-04-03T13:49:33;102872.56;;;9.60;32.56
77793;BME280;66983;51.438;5.438;2023-04-03T13:52:00;102860.13;;;9.55;34.32
77793;BME280;66983;51.438;5.438;2023-04-03T13:54:34;102860.97;;;9.63;34.67
77793;BME280;66983;51.438;5.438;2023-04-03T13:57:01;102860.97;;;9.70;35.05
77793;BME280;66983;51.438;5.438;2023-04-03T13:59:31;102862.75;;;9.65;34.86
77793;BME280;66983;51.438;5.438;2023-04-03T14:02:15;102855.63;;;9.69;35.55
77793;BME280;66983;51.438;5.438;2023-04-03T14:07:09;102854.75;;;9.77;36.46
77793;BME280;66983;51.438;5.438;2023-04-03T14:09:36;102850.31;;;9.75;36.59
77793;BME280;66983;51.438;5.438;2023-04-03T14:12:08;102849.44;;;9.67;34.21
77793;BME280;66983;51.438;5.438;2023-04-03T14:14:39;102849.47;;;9.56;33.95
77793;BME280;66983;51.438;5.438;2023-04-03T14:17:21;102846.81;;;9.55;35.54
77793;BME280;66983;51.438;5.438;2023-04-03T14:19:49;102851.22;;;9.63;36.20
77793;BME280;66983;51.438;5.438;2023-04-03T14:22:19;102840.56;;;9.63;35.15
77793;BME280;66983;51.438;5.438;2023-04-03T14:24:48;102844.16;;;9.58;36.04
77793;BME280;66983;51.438;5.438;2023-04-03T14:27:20;102846.78;;;9.65;36.08
77793;BME280;66983;51.438;5.438;2023-04-03T14:29:48;102836.16;;;9.61;36.45
77793;BME280;66983;51.438;5.438;2023-04-03T14:32:16;102842.38;;;9.53;36.77
77793;BME280;66983;51.438;5.438;2023-04-03T14:34:44;102842.38;;;9.55;37.75
77793;BME280;66983;51.438;5.438;2023-04-03T14:37:13;102839.66;;;9.67;36.09